sensor_id;sensor_type;location;lat;lon;timestamp;pressure;altitude;pressure_sealevel;temperature;humidity
15308;BME280;7755;52.208;6.964;2022-07-23T00:01:16;101485.34;;;17.80;90.79
15308;BME280;7755;52.208;6.964;2022-07-23T00:05:19;101495.53;;;17.79;90.19
15308;BME280;7755;52.208;6.964;2022-07-23T00:09:23;101498.81;;;17.81;90.25
15308;BME280;7755;52.208;6.964;2022-07-23T00:13:26;101494.41;;;17.80;90.30
15308;BME280;7755;52.208;6.964;2022-07-23T00:17:28;101496.34;;;17.80;90.00
15308;BME280;7755;52.208;6.964;2022-07-23T00:21:38;101501.56;;;17.76;90.54
15308;BME280;7755;52.208;6.964;2022-07-23T00:25:42;101492.44;;;17.70;90.98
15308;BME280;7755;52.208;6.964;2022-07-23T00:29:44;101484.13;;;17.60;92.04
15308;BME280;7755;52.208;6.964;2022-07-23T00:33:46;101476.13;;;17.54;92.43
15308;BME280;7755;52.208;6.964;2022-07-23T00:37:48;101474.19;;;17.54;91.91
15308;BME280;7755;52.208;6.964;2022-07-23T00:41:56;101468.94;;;17.47;92.54
15308;BME280;7755;52.208;6.964;2022-07-23T00:45:59;101475.28;;;17.43;93.27
15308;BME280;7755;52.208;6.964;2022-07-23T00:50:03;101473.31;;;17.38;92.83
15308;BME280;7755;52.208;6.964;2022-07-23T00:54:06;101468.91;;;17.37;92.75
15308;BME280;7755;52.208;6.964;2022-07-23T00:58:10;101463.38;;;17.32;92.98
15308;BME280;7755;52.208;6.964;2022-07-23T01:02:13;101458.41;;;17.24;93.62
15308;BME280;7755;52.208;6.964;2022-07-23T01:06:15;101469.34;;;17.19;94.02
15308;BME280;7755;52.208;6.964;2022-07-23T01:10:17;101469.31;;;17.09;95.01
15308;BME280;7755;52.208;6.964;2022-07-23T01:14:39;101465.66;;;16.98;95.98
15308;BME280;7755;52.208;6.964;2022-07-23T01:18:41;101460.66;;;16.90;96.32
15308;BME280;7755;52.208;6.964;2022-07-23T01:22:45;101457.31;;;16.83;96.39
15308;BME280;7755;52.208;6.964;2022-07-23T01:26:48;101458.09;;;16.73;97.66
15308;BME280;7755;52.208;6.964;2022-07-23T01:30:52;101459.28;;;16.55;99.18
15308;BME280;7755;52.208;6.964;2022-07-23T01:34:57;101458.13;;;16.51;99.49
15308;BME280;7755;52.208;6.964;2022-07-23T01:39:01;101450.69;;;16.47;100.00
15308;BME280;7755;52.208;6.964;2022-07-23T01:43:03;101450.59;;;16.36;100.00
15308;BME280;7755;52.208;6.964;2022-07-23T01:47:07;101445.31;;;16.30;100.00
15308;BME280;7755;52.208;6.964;2022-07-23T01:51:09;101452.25;;;16.10;100.00
15308;BME280;7755;52.208;6.964;2022-07-23T01:55:18;101453.06;;;16.06;100.00
15308;BME280;7755;52.208;6.964;2022-07-23T01:59:22;101453.88;;;16.06;100.00
15308;BME280;7755;52.208;6.964;2022-07-23T02:03:26;101450.34;;;16.11;100.00
15308;BME280;7755;52.208;6.964;2022-07-23T02:07:29;101446.78;;;16.10;100.00
15308;BME280;7755;52.208;6.964;2022-07-23T02:11:34;101455.84;;;16.11;100.00
15308;BME280;7755;52.208;6.964;2022-07-23T02:15:36;101449.84;;;16.14;100.00
15308;BME280;7755;52.208;6.964;2022-07-23T02:19:39;101441.88;;;16.13;100.00
15308;BME280;7755;52.208;6.964;2022-07-23T02:23:43;101440.47;;;16.10;100.00
15308;BME280;7755;52.208;6.964;2022-07-23T02:27:46;101438.25;;;16.07;100.00
15308;BME280;7755;52.208;6.964;2022-07-23T02:31:48;101437.38;;;16.01;100.00
15308;BME280;7755;52.208;6.964;2022-07-23T02:35:51;101441.47;;;15.99;100.00
15308;BME280;7755;52.208;6.964;2022-07-23T02:39:54;101441.13;;;15.95;100.00
15308;BME280;7755;52.208;6.964;2022-07-23T02:43:57;101446.00;;;15.88;100.00
15308;BME280;7755;52.208;6.964;2022-07-23T02:48:01;101441.47;;;15.77;100.00
15308;BME280;7755;52.208;6.964;2022-07-23T02:52:04;101440.03;;;15.69;100.00
15308;BME280;7755;52.208;6.964;2022-07-23T02:56:06;101439.41;;;15.62;100.00
15308;BME280;7755;52.208;6.964;2022-07-23T03:00:11;101443.47;;;15.60;100.00
15308;BME280;7755;52.208;6.964;2022-07-23T03:04:13;101441.09;;;15.46;100.00
15308;BME280;7755;52.208;6.964;2022-07-23T03:08:18;101451.63;;;15.33;100.00
15308;BME280;7755;52.208;6.964;2022-07-23T03:12:24;101455.63;;;15.25;100.00
15308;BME280;7755;52.208;6.964;2022-07-23T03:16:28;101465.94;;;15.18;100.00
15308;BME280;7755;52.208;6.964;2022-07-23T03:20:30;101449.44;;;15.13;100.00
15308;BME280;7755;52.208;6.964;2022-07-23T03:24:33;101457.91;;;15.11;100.00
15308;BME280;7755;52.208;6.964;2022-07-23T03:29:05;101469.59;;;15.07;100.00
15308;BME280;7755;52.208;6.964;2022-07-23T03:33:09;101462.72;;;15.04;100.00
15308;BME280;7755;52.208;6.964;2022-07-23T03:37:11;101452.00;;;15.02;100.00
15308;BME280;7755;52.208;6.964;2022-07-23T03:41:14;101455.75;;;14.96;100.00
15308;BME280;7755;52.208;6.964;2022-07-23T03:45:16;101448.88;;;14.94;100.00
15308;BME280;7755;52.208;6.964;2022-07-23T03:49:20;101448.31;;;14.92;100.00
15308;BME280;7755;52.208;6.964;2022-07-23T03:53:23;101446.06;;;14.89;100.00
15308;BME280;7755;52.208;6.964;2022-07-23T03:57:25;101453.94;;;14.85;100.00
15308;BME280;7755;52.208;6.964;2022-07-23T04:01:28;101455.13;;;14.72;100.00
15308;BME280;7755;52.208;6.964;2022-07-23T04:05:32;101450.28;;;14.63;100.00
15308;BME280;7755;52.208;6.964;2022-07-23T04:09:40;101453.19;;;14.56;100.00
15308;BME280;7755;52.208;6.964;2022-07-23T04:13:44;101456.84;;;14.45;100.00
15308;BME280;7755;52.208;6.964;2022-07-23T04:17:48;101455.66;;;14.41;100.00
15308;BME280;7755;52.208;6.964;2022-07-23T04:21:55;101469.03;;;14.37;100.00
15308;BME280;7755;52.208;6.964;2022-07-23T04:26:04;101466.75;;;14.34;100.00
15308;BME280;7755;52.208;6.964;2022-07-23T04:30:09;101471.75;;;14.37;100.00
15308;BME280;7755;52.208;6.964;2022-07-23T04:34:16;101477.22;;;14.37;100.00
15308;BME280;7755;52.208;6.964;2022-07-23T04:38:20;101466.28;;;14.37;100.00
15308;BME280;7755;52.208;6.964;2022-07-23T04:42:25;101472.31;;;14.39;100.00
15308;BME280;7755;52.208;6.964;2022-07-23T04:46:27;101475.06;;;14.39;100.00
15308;BME280;7755;52.208;6.964;2022-07-23T04:50:31;101474.34;;;14.44;100.00
15308;BME280;7755;52.208;6.964;2022-07-23T04:54:34;101465.75;;;14.52;100.00
15308;BME280;7755;52.208;6.964;2022-07-23T04:58:36;101466.41;;;14.59;100.00
15308;BME280;7755;52.208;6.964;2022-07-23T05:02:39;101472.28;;;14.68;100.00
15308;BME280;7755;52.208;6.964;2022-07-23T05:06:42;101476.28;;;14.77;100.00
15308;BME280;7755;52.208;6.964;2022-07-23T05:10:45;101472.88;;;14.87;100.00
15308;BME280;7755;52.208;6.964;2022-07-23T05:14:49;101475.44;;;14.93;100.00
15308;BME280;7755;52.208;6.964;2022-07-23T05:18:54;101477.47;;;15.03;100.00
15308;BME280;7755;52.208;6.964;2022-07-23T05:22:57;101485.03;;;15.13;100.00
15308;BME280;7755;52.208;6.964;2022-07-23T05:27:00;101476.63;;;15.19;100.00
15308;BME280;7755;52.208;6.964;2022-07-23T05:31:03;101486.63;;;15.30;100.00
15308;BME280;7755;52.208;6.964;2022-07-23T05:35:07;101492.78;;;15.38;100.00
15308;BME280;7755;52.208;6.964;2022-07-23T05:39:13;101489.09;;;15.49;100.00
15308;BME280;7755;52.208;6.964;2022-07-23T05:43:16;101495.47;;;15.54;100.00
15308;BME280;7755;52.208;6.964;2022-07-23T05:47:18;101503.44;;;15.56;100.00
15308;BME280;7755;52.208;6.964;2022-07-23T05:51:21;101514.13;;;15.57;100.00
15308;BME280;7755;52.208;6.964;2022-07-23T05:55:25;101514.56;;;15.66;100.00
15308;BME280;7755;52.208;6.964;2022-07-23T05:59:33;101510.56;;;15.74;100.00
15308;BME280;7755;52.208;6.964;2022-07-23T06:03:36;101515.09;;;15.85;100.00
15308;BME280;7755;52.208;6.964;2022-07-23T06:07:38;101522.03;;;15.93;100.00
15308;BME280;7755;52.208;6.964;2022-07-23T06:11:41;101525.16;;;16.01;100.00
15308;BME280;7755;52.208;6.964;2022-07-23T06:15:45;101530.84;;;16.22;100.00
15308;BME280;7755;52.208;6.964;2022-07-23T06:19:48;101528.19;;;16.54;100.00
15308;BME280;7755;52.208;6.964;2022-07-23T06:23:50;101535.03;;;16.83;99.47
15308;BME280;7755;52.208;6.964;2022-07-23T06:27:52;101544.94;;;17.16;98.23
15308;BME280;7755;52.208;6.964;2022-07-23T06:32:00;101545.19;;;17.57;96.96
15308;BME280;7755;52.208;6.964;2022-07-23T06:36:03;101526.66;;;17.95;94.61
15308;BME280;7755;52.208;6.964;2022-07-23T06:40:07;101530.94;;;18.43;93.16
15308;BME280;7755;52.208;6.964;2022-07-23T06:44:11;101538.16;;;18.80;90.19
15308;BME280;7755;52.208;6.964;2022-07-23T06:48:19;101550.84;;;19.06;86.81
15308;BME280;7755;52.208;6.964;2022-07-23T06:52:21;101542.53;;;19.22;86.07
15308;BME280;7755;52.208;6.964;2022-07-23T06:56:24;101546.06;;;19.53;84.48
15308;BME280;7755;52.208;6.964;2022-07-23T07:00:28;101548.50;;;19.80;82.84
15308;BME280;7755;52.208;6.964;2022-07-23T07:04:34;101543.41;;;20.12;82.01
15308;BME280;7755;52.208;6.964;2022-07-23T07:08:36;101542.47;;;20.27;78.64
15308;BME280;7755;52.208;6.964;2022-07-23T07:12:38;101548.72;;;20.43;77.80
15308;BME280;7755;52.208;6.964;2022-07-23T07:16:41;101543.91;;;20.64;76.73
15308;BME280;7755;52.208;6.964;2022-07-23T07:20:44;101544.84;;;20.88;74.31
15308;BME280;7755;52.208;6.964;2022-07-23T07:24:46;101547.81;;;20.58;71.70
15308;BME280;7755;52.208;6.964;2022-07-23T07:28:48;101552.59;;;20.47;72.74
15308;BME280;7755;52.208;6.964;2022-07-23T07:32:52;101550.06;;;20.56;72.86
15308;BME280;7755;52.208;6.964;2022-07-23T07:36:55;101548.41;;;20.55;72.30
15308;BME280;7755;52.208;6.964;2022-07-23T07:41:16;101548.13;;;20.56;71.78
15308;BME280;7755;52.208;6.964;2022-07-23T07:49:56;101557.69;;;21.03;68.84
15308;BME280;7755;52.208;6.964;2022-07-23T07:54:00;101567.78;;;20.89;69.80
15308;BME280;7755;52.208;6.964;2022-07-23T07:58:02;101566.34;;;21.25;68.50
15308;BME280;7755;52.208;6.964;2022-07-23T08:02:04;101579.63;;;21.29;65.71
15308;BME280;7755;52.208;6.964;2022-07-23T08:06:07;101578.66;;;21.09;66.97
15308;BME280;7755;52.208;6.964;2022-07-23T08:10:10;101580.47;;;21.29;65.88
15308;BME280;7755;52.208;6.964;2022-07-23T08:14:12;101585.63;;;21.65;64.62
15308;BME280;7755;52.208;6.964;2022-07-23T08:18:17;101582.63;;;21.85;61.83
15308;BME280;7755;52.208;6.964;2022-07-23T08:22:19;101581.50;;;21.62;60.95
15308;BME280;7755;52.208;6.964;2022-07-23T08:26:28;101578.94;;;21.42;61.83
15308;BME280;7755;52.208;6.964;2022-07-23T08:30:30;101591.41;;;21.68;62.04
15308;BME280;7755;52.208;6.964;2022-07-23T08:34:33;101582.06;;;22.07;60.76
15308;BME280;7755;52.208;6.964;2022-07-23T08:38:35;101580.13;;;22.50;61.22
15308;BME280;7755;52.208;6.964;2022-07-23T08:42:39;101589.66;;;22.63;58.52
15308;BME280;7755;52.208;6.964;2022-07-23T08:46:43;101582.53;;;22.57;57.94
15308;BME280;7755;52.208;6.964;2022-07-23T08:50:48;101585.91;;;22.92;58.25
15308;BME280;7755;52.208;6.964;2022-07-23T08:54:57;101593.91;;;22.93;58.26
15308;BME280;7755;52.208;6.964;2022-07-23T08:59:13;101591.59;;;23.33;56.18
15308;BME280;7755;52.208;6.964;2022-07-23T09:03:17;101599.09;;;23.32;55.50
15308;BME280;7755;52.208;6.964;2022-07-23T09:07:21;101591.50;;;23.38;55.87
15308;BME280;7755;52.208;6.964;2022-07-23T09:11:24;101586.38;;;23.45;54.33
15308;BME280;7755;52.208;6.964;2022-07-23T09:15:32;101583.84;;;23.30;54.75
15308;BME280;7755;52.208;6.964;2022-07-23T09:19:46;101594.66;;;23.31;53.62
15308;BME280;7755;52.208;6.964;2022-07-23T09:24:15;101601.06;;;23.92;52.33
15308;BME280;7755;52.208;6.964;2022-07-23T09:28:53;101605.06;;;24.13;51.22
15308;BME280;7755;52.208;6.964;2022-07-23T09:33:31;101602.47;;;24.03;51.58
15308;BME280;7755;52.208;6.964;2022-07-23T09:38:00;101598.25;;;24.06;51.58
15308;BME280;7755;52.208;6.964;2022-07-23T09:42:18;101598.03;;;24.16;50.72
15308;BME280;7755;52.208;6.964;2022-07-23T09:46:33;101586.28;;;24.46;49.14
15308;BME280;7755;52.208;6.964;2022-07-23T09:50:52;101593.78;;;24.82;46.96
15308;BME280;7755;52.208;6.964;2022-07-23T09:55:01;101600.75;;;24.93;47.79
15308;BME280;7755;52.208;6.964;2022-07-23T09:59:04;101604.66;;;24.92;47.73
15308;BME280;7755;52.208;6.964;2022-07-23T10:03:24;101598.50;;;25.18;47.84
15308;BME280;7755;52.208;6.964;2022-07-23T10:08:16;101605.41;;;25.20;46.78
15308;BME280;7755;52.208;6.964;2022-07-23T10:13:08;101596.75;;;24.86;46.89
15308;BME280;7755;52.208;6.964;2022-07-23T10:23:02;101605.13;;;25.30;46.53
15308;BME280;7755;52.208;6.964;2022-07-23T10:32:04;101598.28;;;25.68;44.71
15308;BME280;7755;52.208;6.964;2022-07-23T10:36:28;101593.63;;;25.85;45.33
15308;BME280;7755;52.208;6.964;2022-07-23T10:40:53;101591.72;;;25.64;45.09
15308;BME280;7755;52.208;6.964;2022-07-23T10:45:22;101592.97;;;25.49;46.36
15308;BME280;7755;52.208;6.964;2022-07-23T10:49:54;101591.06;;;25.67;43.98
15308;BME280;7755;52.208;6.964;2022-07-23T10:54:42;101589.34;;;25.79;45.13
15308;BME280;7755;52.208;6.964;2022-07-23T10:59:07;101598.56;;;25.89;44.90
15308;BME280;7755;52.208;6.964;2022-07-23T11:03:44;101593.47;;;25.82;45.27
15308;BME280;7755;52.208;6.964;2022-07-23T11:08:25;101591.94;;;26.33;44.87
15308;BME280;7755;52.208;6.964;2022-07-23T11:12:47;101595.13;;;26.57;43.92
15308;BME280;7755;52.208;6.964;2022-07-23T11:17:18;101581.66;;;26.85;43.65
15308;BME280;7755;52.208;6.964;2022-07-23T11:21:43;101587.56;;;26.92;43.40
15308;BME280;7755;52.208;6.964;2022-07-23T11:26:04;101578.88;;;26.85;43.40
15308;BME280;7755;52.208;6.964;2022-07-23T11:30:38;101577.25;;;26.67;42.53
15308;BME280;7755;52.208;6.964;2022-07-23T11:34:53;101585.75;;;26.36;43.56
15308;BME280;7755;52.208;6.964;2022-07-23T11:39:08;101580.66;;;26.38;43.70
15308;BME280;7755;52.208;6.964;2022-07-23T11:43:25;101578.63;;;26.21;44.25
15308;BME280;7755;52.208;6.964;2022-07-23T11:47:40;101585.28;;;26.51;44.12
15308;BME280;7755;52.208;6.964;2022-07-23T11:52:04;101579.69;;;26.86;44.10
15308;BME280;7755;52.208;6.964;2022-07-23T11:56:31;101581.00;;;26.97;43.84
15308;BME280;7755;52.208;6.964;2022-07-23T12:00:58;101588.56;;;26.88;43.49
15308;BME280;7755;52.208;6.964;2022-07-23T12:05:26;101594.13;;;26.88;43.63
15308;BME280;7755;52.208;6.964;2022-07-23T12:09:52;101586.25;;;27.16;44.56
15308;BME280;7755;52.208;6.964;2022-07-23T12:14:22;101581.94;;;27.36;42.91
15308;BME280;7755;52.208;6.964;2022-07-23T12:18:50;101579.94;;;27.36;42.62
15308;BME280;7755;52.208;6.964;2022-07-23T12:23:16;101569.63;;;27.28;43.31
15308;BME280;7755;52.208;6.964;2022-07-23T12:27:37;101565.75;;;27.59;43.09
15308;BME280;7755;52.208;6.964;2022-07-23T12:31:59;101574.50;;;27.48;43.00
15308;BME280;7755;52.208;6.964;2022-07-23T12:36:16;101573.28;;;27.67;43.24
15308;BME280;7755;52.208;6.964;2022-07-23T12:40:41;101574.09;;;27.76;41.88
15308;BME280;7755;52.208;6.964;2022-07-23T12:45:02;101562.06;;;27.29;42.72
15308;BME280;7755;52.208;6.964;2022-07-23T12:53:40;101574.25;;;27.24;43.34
15308;BME280;7755;52.208;6.964;2022-07-23T12:57:46;101578.81;;;27.37;42.48
15308;BME280;7755;52.208;6.964;2022-07-23T13:01:54;101571.47;;;27.62;43.57
15308;BME280;7755;52.208;6.964;2022-07-23T13:06:00;101580.34;;;28.11;42.88
15308;BME280;7755;52.208;6.964;2022-07-23T13:10:07;101579.78;;;27.88;42.19
15308;BME280;7755;52.208;6.964;2022-07-23T13:14:11;101582.97;;;27.78;42.10
15308;BME280;7755;52.208;6.964;2022-07-23T13:18:14;101584.19;;;27.98;42.69
15308;BME280;7755;52.208;6.964;2022-07-23T13:22:18;101579.66;;;27.85;42.33
15308;BME280;7755;52.208;6.964;2022-07-23T13:26:23;101578.75;;;27.55;43.51
15308;BME280;7755;52.208;6.964;2022-07-23T13:30:25;101570.50;;;27.67;43.21
15308;BME280;7755;52.208;6.964;2022-07-23T13:34:28;101576.63;;;27.98;44.03
15308;BME280;7755;52.208;6.964;2022-07-23T13:38:31;101572.59;;;28.38;43.01
15308;BME280;7755;52.208;6.964;2022-07-23T13:42:37;101582.91;;;28.16;41.40
15308;BME280;7755;52.208;6.964;2022-07-23T13:46:40;101575.44;;;27.61;42.75
15308;BME280;7755;52.208;6.964;2022-07-23T13:50:55;101584.75;;;27.27;43.43
15308;BME280;7755;52.208;6.964;2022-07-23T13:54:58;101579.03;;;26.98;43.84
15308;BME280;7755;52.208;6.964;2022-07-23T13:59:01;101584.47;;;26.59;44.42
15308;BME280;7755;52.208;6.964;2022-07-23T14:03:10;101582.28;;;26.22;45.41
15308;BME280;7755;52.208;6.964;2022-07-23T14:07:20;101570.31;;;26.30;46.79
15308;BME280;7755;52.208;6.964;2022-07-23T14:11:29;101572.78;;;26.40;45.94
15308;BME280;7755;52.208;6.964;2022-07-23T14:15:34;101571.41;;;26.11;46.31
15308;BME280;7755;52.208;6.964;2022-07-23T14:19:36;101565.69;;;26.08;46.55
15308;BME280;7755;52.208;6.964;2022-07-23T14:23:39;101567.97;;;26.14;46.57
15308;BME280;7755;52.208;6.964;2022-07-23T14:27:48;101574.81;;;25.91;46.20
15308;BME280;7755;52.208;6.964;2022-07-23T14:31:51;101563.19;;;25.98;47.25
15308;BME280;7755;52.208;6.964;2022-07-23T14:35:54;101561.75;;;26.35;46.88
15308;BME280;7755;52.208;6.964;2022-07-23T14:39:58;101560.81;;;26.39;46.05
15308;BME280;7755;52.208;6.964;2022-07-23T14:44:02;101563.59;;;26.48;45.79
15308;BME280;7755;52.208;6.964;2022-07-23T14:48:06;101559.84;;;26.44;46.18
15308;BME280;7755;52.208;6.964;2022-07-23T14:52:18;101565.09;;;26.54;47.06
15308;BME280;7755;52.208;6.964;2022-07-23T14:56:22;101558.53;;;26.76;45.34
15308;BME280;7755;52.208;6.964;2022-07-23T15:00:24;101561.81;;;26.78;45.36
15308;BME280;7755;52.208;6.964;2022-07-23T15:04:28;101558.88;;;26.66;46.01
15308;BME280;7755;52.208;6.964;2022-07-23T15:08:30;101560.13;;;26.34;45.41
15308;BME280;7755;52.208;6.964;2022-07-23T15:12:34;101556.38;;;26.30;46.22
15308;BME280;7755;52.208;6.964;2022-07-23T15:16:36;101563.06;;;26.20;47.21
15308;BME280;7755;52.208;6.964;2022-07-23T15:20:40;101558.47;;;26.24;47.76
15308;BME280;7755;52.208;6.964;2022-07-23T15:24:42;101557.00;;;26.09;46.65
15308;BME280;7755;52.208;6.964;2022-07-23T15:28:45;101563.31;;;25.84;47.83
15308;BME280;7755;52.208;6.964;2022-07-23T15:32:47;101558.91;;;25.92;47.98
15308;BME280;7755;52.208;6.964;2022-07-23T15:36:50;101553.31;;;25.83;48.77
15308;BME280;7755;52.208;6.964;2022-07-23T15:40:57;101554.69;;;26.03;47.87
15308;BME280;7755;52.208;6.964;2022-07-23T15:44:59;101548.59;;;26.01;48.17
15308;BME280;7755;52.208;6.964;2022-07-23T15:49:01;101543.25;;;26.30;47.22
15308;BME280;7755;52.208;6.964;2022-07-23T15:53:08;101539.44;;;26.35;47.45
15308;BME280;7755;52.208;6.964;2022-07-23T15:57:11;101543.56;;;26.37;46.84
15308;BME280;7755;52.208;6.964;2022-07-23T16:01:25;101547.50;;;26.36;47.23
15308;BME280;7755;52.208;6.964;2022-07-23T16:05:31;101541.75;;;26.33;47.14
15308;BME280;7755;52.208;6.964;2022-07-23T16:09:35;101536.00;;;26.03;47.16
15308;BME280;7755;52.208;6.964;2022-07-23T16:13:37;101548.59;;;26.01;47.71
15308;BME280;7755;52.208;6.964;2022-07-23T16:17:40;101544.28;;;25.86;47.58
15308;BME280;7755;52.208;6.964;2022-07-23T16:21:42;101532.66;;;25.84;48.11
15308;BME280;7755;52.208;6.964;2022-07-23T16:25:46;101544.00;;;25.96;47.55
15308;BME280;7755;52.208;6.964;2022-07-23T16:30:04;101529.38;;;25.82;47.59
15308;BME280;7755;52.208;6.964;2022-07-23T16:34:20;101527.09;;;25.84;46.89
15308;BME280;7755;52.208;6.964;2022-07-23T16:38:35;101535.78;;;25.91;48.65
15308;BME280;7755;52.208;6.964;2022-07-23T16:42:40;101526.59;;;25.91;47.77
15308;BME280;7755;52.208;6.964;2022-07-23T16:46:43;101522.69;;;26.00;48.22
15308;BME280;7755;52.208;6.964;2022-07-23T16:50:55;101508.25;;;25.98;47.65
15308;BME280;7755;52.208;6.964;2022-07-23T16:54:57;101516.28;;;26.00;47.41
15308;BME280;7755;52.208;6.964;2022-07-23T16:59:07;101514.97;;;25.89;47.81
15308;BME280;7755;52.208;6.964;2022-07-23T17:03:10;101518.59;;;25.89;47.55
15308;BME280;7755;52.208;6.964;2022-07-23T17:07:22;101523.47;;;25.83;48.52
15308;BME280;7755;52.208;6.964;2022-07-23T17:11:25;101532.03;;;25.96;48.61
15308;BME280;7755;52.208;6.964;2022-07-23T17:15:30;101535.94;;;25.86;47.91
15308;BME280;7755;52.208;6.964;2022-07-23T17:19:36;101534.13;;;25.81;48.96
15308;BME280;7755;52.208;6.964;2022-07-23T17:23:39;101538.50;;;25.74;49.03
15308;BME280;7755;52.208;6.964;2022-07-23T17:27:41;101541.00;;;25.44;48.56
15308;BME280;7755;52.208;6.964;2022-07-23T17:31:47;101529.09;;;25.21;49.42
15308;BME280;7755;52.208;6.964;2022-07-23T17:36:08;101538.78;;;25.24;50.03
15308;BME280;7755;52.208;6.964;2022-07-23T17:40:30;101529.19;;;25.08;49.92
15308;BME280;7755;52.208;6.964;2022-07-23T17:44:32;101540.00;;;25.09;50.68
15308;BME280;7755;52.208;6.964;2022-07-23T17:48:53;101534.59;;;24.90;50.33
15308;BME280;7755;52.208;6.964;2022-07-23T17:53:11;101536.06;;;24.88;50.87
15308;BME280;7755;52.208;6.964;2022-07-23T17:57:22;101530.56;;;24.96;51.21
15308;BME280;7755;52.208;6.964;2022-07-23T18:01:24;101531.44;;;24.83;51.37
15308;BME280;7755;52.208;6.964;2022-07-23T18:05:30;101532.75;;;24.86;52.07
15308;BME280;7755;52.208;6.964;2022-07-23T18:09:33;101532.47;;;24.87;52.31
15308;BME280;7755;52.208;6.964;2022-07-23T18:13:35;101534.44;;;24.87;52.41
15308;BME280;7755;52.208;6.964;2022-07-23T18:17:38;101527.97;;;24.77;51.92
15308;BME280;7755;52.208;6.964;2022-07-23T18:21:45;101533.03;;;24.75;52.73
15308;BME280;7755;52.208;6.964;2022-07-23T18:25:49;101536.75;;;24.71;53.58
15308;BME280;7755;52.208;6.964;2022-07-23T18:29:51;101526.28;;;24.68;53.95
15308;BME280;7755;52.208;6.964;2022-07-23T18:33:54;101527.53;;;24.62;54.77
15308;BME280;7755;52.208;6.964;2022-07-23T18:38:04;101545.69;;;24.59;54.78
15308;BME280;7755;52.208;6.964;2022-07-23T18:42:07;101544.44;;;24.51;54.42
15308;BME280;7755;52.208;6.964;2022-07-23T18:46:10;101538.63;;;24.39;54.96
15308;BME280;7755;52.208;6.964;2022-07-23T18:50:27;101543.69;;;24.23;55.29
15308;BME280;7755;52.208;6.964;2022-07-23T18:54:31;101541.31;;;24.17;55.76
15308;BME280;7755;52.208;6.964;2022-07-23T18:58:35;101545.34;;;24.11;56.05
15308;BME280;7755;52.208;6.964;2022-07-23T19:02:43;101558.00;;;24.03;56.60
15308;BME280;7755;52.208;6.964;2022-07-23T19:06:45;101551.22;;;23.95;57.11
15308;BME280;7755;52.208;6.964;2022-07-23T19:10:49;101559.47;;;23.87;57.66
15308;BME280;7755;52.208;6.964;2022-07-23T19:14:51;101552.69;;;23.79;57.95
15308;BME280;7755;52.208;6.964;2022-07-23T19:18:54;101549.78;;;23.70;58.23
15308;BME280;7755;52.208;6.964;2022-07-23T19:22:58;101555.84;;;23.59;59.00
15308;BME280;7755;52.208;6.964;2022-07-23T19:27:03;101558.31;;;23.47;59.34
15308;BME280;7755;52.208;6.964;2022-07-23T19:31:05;101571.84;;;23.34;59.86
15308;BME280;7755;52.208;6.964;2022-07-23T19:35:08;101564.63;;;23.20;60.91
15308;BME280;7755;52.208;6.964;2022-07-23T19:39:11;101559.78;;;23.11;61.17
15308;BME280;7755;52.208;6.964;2022-07-23T19:43:14;101566.84;;;23.04;61.87
15308;BME280;7755;52.208;6.964;2022-07-23T19:47:16;101562.28;;;22.94;62.35
15308;BME280;7755;52.208;6.964;2022-07-23T19:51:18;101573.53;;;22.84;63.14
15308;BME280;7755;52.208;6.964;2022-07-23T19:55:23;101567.81;;;22.75;63.78
15308;BME280;7755;52.208;6.964;2022-07-23T19:59:26;101553.91;;;22.61;64.26
15308;BME280;7755;52.208;6.964;2022-07-23T20:03:29;101565.72;;;22.48;64.87
15308;BME280;7755;52.208;6.964;2022-07-23T20:07:32;101569.81;;;22.37;65.67
15308;BME280;7755;52.208;6.964;2022-07-23T20:11:34;101564.47;;;22.22;66.85
15308;BME280;7755;52.208;6.964;2022-07-23T20:15:38;101562.06;;;22.15;67.89
15308;BME280;7755;52.208;6.964;2022-07-23T20:19:40;101568.22;;;22.07;68.40
15308;BME280;7755;52.208;6.964;2022-07-23T20:23:42;101563.34;;;21.99;68.72
15308;BME280;7755;52.208;6.964;2022-07-23T20:27:44;101565.94;;;21.90;69.34
15308;BME280;7755;52.208;6.964;2022-07-23T20:31:49;101574.09;;;21.82;70.02
15308;BME280;7755;52.208;6.964;2022-07-23T20:35:51;101579.50;;;21.68;70.86
15308;BME280;7755;52.208;6.964;2022-07-23T20:39:53;101586.34;;;21.46;73.64
15308;BME280;7755;52.208;6.964;2022-07-23T20:43:56;101583.81;;;21.21;75.58
15308;BME280;7755;52.208;6.964;2022-07-23T20:47:59;101580.41;;;21.00;77.45
15308;BME280;7755;52.208;6.964;2022-07-23T20:52:01;101588.06;;;20.74;78.67
15308;BME280;7755;52.208;6.964;2022-07-23T20:56:05;101582.38;;;20.55;80.00
15308;BME280;7755;52.208;6.964;2022-07-23T21:00:11;101589.34;;;20.48;79.86
15308;BME280;7755;52.208;6.964;2022-07-23T21:04:14;101583.53;;;20.44;80.42
15308;BME280;7755;52.208;6.964;2022-07-23T21:08:16;101581.06;;;20.37;80.68
15308;BME280;7755;52.208;6.964;2022-07-23T21:12:18;101583.31;;;20.30;81.14
15308;BME280;7755;52.208;6.964;2022-07-23T21:16:21;101588.91;;;20.20;81.93
15308;BME280;7755;52.208;6.964;2022-07-23T21:20:25;101592.25;;;20.12;82.07
15308;BME280;7755;52.208;6.964;2022-07-23T21:24:48;101585.13;;;20.06;82.77
15308;BME280;7755;52.208;6.964;2022-07-23T21:28:50;101579.91;;;19.99;82.90
15308;BME280;7755;52.208;6.964;2022-07-23T21:32:52;101582.09;;;19.97;83.35
15308;BME280;7755;52.208;6.964;2022-07-23T21:36:56;101578.53;;;19.92;84.03
15308;BME280;7755;52.208;6.964;2022-07-23T21:40:57;101576.88;;;19.90;84.47
15308;BME280;7755;52.208;6.964;2022-07-23T21:44:59;101577.97;;;19.89;84.68
15308;BME280;7755;52.208;6.964;2022-07-23T21:49:03;101577.75;;;19.86;84.83
15308;BME280;7755;52.208;6.964;2022-07-23T21:53:06;101579.69;;;19.80;85.41
15308;BME280;7755;52.208;6.964;2022-07-23T21:57:09;101579.69;;;19.70;85.48
15308;BME280;7755;52.208;6.964;2022-07-23T22:01:11;101573.69;;;19.58;85.73
15308;BME280;7755;52.208;6.964;2022-07-23T22:05:13;101582.75;;;19.48;86.05